Time;durP1;ratioP1;P1;durP2;ratioP2;P2;SDS_P1;SDS_P2;PMS_P1;PMS_P2;Temp;Humidity;BMP_temperature;BMP_pressure;BME280_temperature;BME280_humidity;BME280_pressure;Samples;Min_cycle;Max_cycle;Signal;HPM_P1;HPM_P2
2023/01/10 00:00:34;;;;;;;12.23;5.70;;;;;;;6.16;75.96;100055.53;10523267;28;20243;-83
2023/01/10 00:05:37;;;;;;;10.07;6.17;;;;;;;6.13;76.26;100065.28;10518582;28;20191;-83
2023/01/10 00:10:40;;;;;;;13.67;6.20;;;;;;;6.52;74.50;100081.06;10556173;28;20251;-84
2023/01/10 00:15:42;;;;;;;12.50;6.57;;;;;;;5.94;76.31;100087.41;10528655;28;20211;-83
2023/01/10 00:20:46;;;;;;;9.63;6.10;;;;;;;6.05;76.39;100094.56;10534017;28;20203;-82
2023/01/10 00:25:48;;;;;;;14.73;6.77;;;;;;;6.01;75.88;100109.38;10539969;28;20202;-83
2023/01/10 00:31:05;;;;;;;12.37;6.77;;;;;;;6.25;75.38;100121.44;10534403;28;20349;-88
2023/01/10 00:36:09;;;;;;;11.33;6.20;;;;;;;6.09;75.95;100139.38;10537478;28;20523;-85
2023/01/10 00:43:55;;;;;;;9.27;5.93;;;;;;;6.43;74.79;100150.50;10507341;28;20202;-86
2023/01/10 00:46:33;;;;;;;13.57;5.80;;;;;;;6.37;74.31;100155.31;10529760;28;20263;-87
2023/01/10 00:51:35;;;;;;;12.90;5.47;;;;;;;6.16;74.31;100167.75;10552293;28;20191;-86
2023/01/10 00:56:37;;;;;;;14.57;5.90;;;;;;;5.92;74.92;100181.53;10536863;28;20198;-89
2023/01/10 01:01:40;;;;;;;10.27;5.50;;;;;;;6.57;74.03;100179.34;10520206;28;20203;-86
2023/01/10 01:06:43;;;;;;;12.17;6.17;;;;;;;5.59;77.39;100177.56;10540545;28;20198;-85
2023/01/10 01:11:45;;;;;;;10.90;5.57;;;;;;;6.04;75.11;100197.88;10511186;28;20195;-84
2023/01/10 01:16:47;;;;;;;11.70;5.00;;;;;;;5.95;75.85;100200.44;10522512;28;20232;-82
2023/01/10 01:21:50;;;;;;;9.73;4.60;;;;;;;6.05;74.90;100221.81;10525844;28;20220;-87
2023/01/10 01:26:53;;;;;;;14.03;4.90;;;;;;;6.39;73.19;100230.22;10541438;28;20194;-88
2023/01/10 01:31:56;;;;;;;6.70;4.70;;;;;;;5.86;74.70;100237.53;10545811;28;20199;-85
2023/01/10 01:36:58;;;;;;;9.07;3.93;;;;;;;5.71;75.26;100253.19;10544799;28;20271;-82
2023/01/10 01:42:00;;;;;;;11.27;4.63;;;;;;;6.23;73.21;100262.91;10525091;28;20491;-85
2023/01/10 01:47:11;;;;;;;10.60;3.30;;;;;;;5.88;74.25;100268.69;10520977;28;20203;-85
2023/01/10 01:52:21;;;;;;;6.33;3.50;;;;;;;5.79;74.51;100279.56;10544012;28;20621;-85
2023/01/10 01:57:25;;;;;;;10.93;3.87;;;;;;;6.22;72.74;100280.75;10500100;28;20244;-89
2023/01/10 02:02:30;;;;;;;13.60;3.53;;;;;;;5.88;73.83;100299.31;10542869;28;20243;-83
2023/01/10 02:07:36;;;;;;;8.90;3.13;;;;;;;5.72;74.70;100291.03;10543321;28;20525;-89
2023/01/10 02:12:39;;;;;;;10.40;3.23;;;;;;;6.00;73.63;100294.25;10540199;28;20229;-89
2023/01/10 02:17:41;;;;;;;10.67;3.50;;;;;;;5.65;75.03;100293.25;10542808;28;20251;-85
2023/01/10 02:22:56;;;;;;;5.73;2.90;;;;;;;6.08;73.13;100299.22;10542705;28;20183;-89
2023/01/10 02:28:20;;;;;;;8.70;2.97;;;;;;;6.15;72.67;100301.69;10539928;28;20630;-89
2023/01/10 02:33:28;;;;;;;8.13;2.80;;;;;;;5.43;75.34;100309.47;10541051;28;20198;-88
2023/01/10 02:38:57;;;;;;;11.87;2.77;;;;;;;5.48;75.19;100317.81;10538905;28;20222;-84
2023/01/10 02:44:28;;;;;;;9.60;2.73;;;;;;;5.79;73.52;100306.56;10525329;28;20660;-85
2023/01/10 02:49:40;;;;;;;11.13;2.20;;;;;;;5.55;74.42;100320.28;10515636;28;20198;-83
2023/01/10 02:54:43;;;;;;;8.40;2.20;;;;;;;5.92;72.97;100325.44;10523547;28;20222;-84
2023/01/10 02:59:58;;;;;;;9.03;2.43;;;;;;;5.34;74.29;100328.69;10550623;28;20221;-89
2023/01/10 03:05:21;;;;;;;10.90;2.47;;;;;;;5.49;73.51;100336.19;10532309;28;20583;-87
2023/01/10 03:10:29;;;;;;;7.80;2.17;;;;;;;5.62;72.96;100334.75;10549025;28;20218;-84
2023/01/10 03:15:34;;;;;;;10.87;2.33;;;;;;;5.70;72.26;100342.50;10531843;28;20284;-84
2023/01/10 03:20:37;;;;;;;7.33;2.10;;;;;;;5.70;72.97;100342.50;10548113;28;20216;-84
2023/01/10 03:25:40;;;;;;;10.30;1.67;;;;;;;5.65;73.33;100345.31;10532067;28;20208;-86
2023/01/10 03:30:50;;;;;;;11.57;1.90;;;;;;;5.71;72.75;100367.28;10526810;28;20198;-88
2023/01/10 03:36:04;;;;;;;8.80;2.07;;;;;;;5.67;72.59;100382.88;10531460;28;20218;-86
2023/01/10 03:41:07;;;;;;;6.93;1.63;;;;;;;5.59;72.91;100397.38;10544509;28;20195;-82
2023/01/10 03:46:20;;;;;;;7.43;1.60;;;;;;;5.49;72.82;100404.91;10546217;28;20178;-87
2023/01/10 03:51:23;;;;;;;5.90;1.63;;;;;;;5.54;73.19;100416.84;10547433;28;20194;-83
2023/01/10 03:56:25;;;;;;;11.57;2.10;;;;;;;5.25;72.21;100418.53;10529244;28;20271;-82
2023/01/10 04:01:27;;;;;;;7.33;2.00;;;;;;;5.36;72.78;100425.75;10530275;28;20236;-81
2023/01/10 04:06:29;;;;;;;13.37;2.43;;;;;;;5.52;71.86;100430.19;10545665;28;20199;-88
2023/01/10 04:11:31;;;;;;;11.63;2.70;;;;;;;5.64;70.67;100427.97;10545632;28;20244;-88
2023/01/10 04:16:34;;;;;;;9.40;2.67;;;;;;;5.46;71.75;100442.44;10547404;28;20606;-82
2023/01/10 04:21:36;;;;;;;9.77;3.03;;;;;;;5.42;72.02;100444.09;10545929;28;20252;-85
2023/01/10 04:26:38;;;;;;;10.60;2.97;;;;;;;5.25;72.79;100460.25;10522766;28;20591;-82
2023/01/10 04:31:40;;;;;;;11.57;3.07;;;;;;;5.36;71.79;100470.28;10543907;28;20591;-87
2023/01/10 04:36:43;;;;;;;9.77;3.10;;;;;;;5.38;72.83;100468.88;10508314;28;20222;-81
2023/01/10 04:41:45;;;;;;;11.93;3.07;;;;;;;5.37;71.37;100456.09;10506214;28;20496;-85
2023/01/10 04:46:47;;;;;;;12.30;2.83;;;;;;;5.61;70.14;100464.69;10536641;28;20195;-82
2023/01/10 04:51:49;;;;;;;6.77;2.13;;;;;;;5.37;71.25;100466.38;10545628;28;20191;-84
2023/01/10 04:56:51;;;;;;;9.57;1.87;;;;;;;5.22;72.22;100483.03;10543603;28;20202;-85
2023/01/10 05:01:53;;;;;;;10.43;2.20;;;;;;;5.11;71.98;100484.94;10547132;28;20195;-86
2023/01/10 05:06:55;;;;;;;9.70;2.30;;;;;;;4.83;72.86;100491.84;10526493;28;20545;-88
2023/01/10 05:11:57;;;;;;;9.87;2.43;;;;;;;5.34;72.39;100483.63;10529307;28;20220;-84
2023/01/10 05:16:59;;;;;;;9.63;2.23;;;;;;;5.31;71.27;100500.84;10544552;28;20553;-82
2023/01/10 05:22:02;;;;;;;10.30;1.90;;;;;;;4.76;73.43;100507.91;10522786;28;20229;-85
2023/01/10 05:27:04;;;;;;;7.37;2.57;;;;;;;5.28;71.57;100499.44;10527712;28;20248;-86
2023/01/10 05:32:06;;;;;;;8.30;2.83;;;;;;;5.07;72.28;100521.91;10516312;28;20215;-84
2023/01/10 05:37:09;;;;;;;7.57;1.90;;;;;;;5.31;71.34;100523.09;10534713;28;20234;-87
2023/01/10 05:42:11;;;;;;;10.27;2.17;;;;;;;5.10;72.38;100529.72;10528960;28;20247;-83
2023/01/10 05:47:13;;;;;;;8.03;2.43;;;;;;;5.25;72.39;100532.56;10486210;28;20191;-86
2023/01/10 05:52:17;;;;;;;8.03;2.17;;;;;;;5.28;71.37;100543.94;10538092;28;20216;-87
2023/01/10 05:57:20;;;;;;;9.97;2.17;;;;;;;5.69;70.26;100547.63;10520164;28;20222;-85
2023/01/10 06:02:25;;;;;;;11.70;2.50;;;;;;;5.43;71.05;100557.06;10533433;28;20611;-87
2023/01/10 06:07:27;;;;;;;11.33;2.20;;;;;;;5.69;70.22;100564.31;10531092;28;20248;-85
2023/01/10 06:12:30;;;;;;;7.83;2.80;;;;;;;5.15;71.85;100555.56;10528162;28;20247;-86
2023/01/10 06:17:33;;;;;;;15.03;2.83;;;;;;;5.30;71.39;100565.91;10510971;28;20211;-85
2023/01/10 06:22:35;;;;;;;11.30;2.57;;;;;;;5.34;70.73;100578.19;10511426;28;20217;-87
2023/01/10 06:27:41;;;;;;;15.37;2.30;;;;;;;5.41;70.63;100564.84;10537491;28;20194;-85
2023/01/10 06:32:44;;;;;;;16.93;2.90;;;;;;;5.34;70.79;100586.53;10536658;28;20195;-86
2023/01/10 06:37:46;;;;;;;9.17;2.10;;;;;;;5.59;69.92;100619.13;10544341;28;20218;-84
2023/01/10 06:42:49;;;;;;;8.60;2.47;;;;;;;4.75;72.78;100636.84;10523732;28;20228;-85
2023/01/10 06:47:51;;;;;;;9.37;2.47;;;;;;;4.76;73.70;100637.69;10533839;28;20224;-87
2023/01/10 06:52:57;;;;;;;8.03;3.10;;;;;;;5.19;71.96;100636.53;10519047;28;20256;-88
2023/01/10 06:58:03;;;;;;;11.83;3.23;;;;;;;5.16;72.64;100648.16;10542646;28;20205;-83
2023/01/10 07:03:06;;;;;;;8.37;2.60;;;;;;;4.96;72.95;100658.09;10542944;28;20233;-86
2023/01/10 07:08:09;;;;;;;10.67;3.33;;;;;;;5.32;71.90;100655.50;10545144;28;20560;-83
2023/01/10 07:13:11;;;;;;;12.80;3.00;;;;;;;5.36;71.40;100676.09;10525893;28;20502;-85
2023/01/10 07:18:13;;;;;;;11.20;3.60;;;;;;;5.11;72.51;100673.19;10545483;28;20495;-85
2023/01/10 07:23:15;;;;;;;9.77;2.93;;;;;;;5.03;73.01;100675.34;10524280;28;20213;-88
2023/01/10 07:28:18;;;;;;;18.83;4.30;;;;;;;4.94;72.90;100685.31;10517344;28;20198;-83
2023/01/10 07:33:20;;;;;;;18.13;3.83;;;;;;;5.30;72.15;100675.22;10544005;28;20512;-86
2023/01/10 07:38:22;;;;;;;18.83;4.13;;;;;;;5.35;71.08;100674.44;10540726;28;20643;-85
2023/01/10 07:43:25;;;;;;;11.07;3.30;;;;;;;4.84;73.74;100688.03;10532152;28;20255;-85
2023/01/10 07:48:27;;;;;;;14.33;3.40;;;;;;;5.26;71.89;100698.28;10543069;28;20648;-87
2023/01/10 07:53:30;;;;;;;17.93;3.73;;;;;;;5.42;71.05;100713.94;10551498;28;20182;-83
2023/01/10 07:58:32;;;;;;;12.23;3.60;;;;;;;5.94;68.22;100708.25;10547032;28;20194;-84
2023/01/10 08:03:34;;;;;;;17.27;4.20;;;;;;;5.93;69.33;100716.88;10539878;28;20216;-87
2023/01/10 08:08:37;;;;;;;14.50;4.10;;;;;;;5.51;70.86;100730.97;10544945;28;20187;-88
2023/01/10 08:13:40;;;;;;;12.30;3.63;;;;;;;5.83;69.25;100739.13;10538863;28;20201;-83
2023/01/10 08:18:42;;;;;;;12.27;4.37;;;;;;;5.82;69.71;100751.38;10524033;28;20195;-83
2023/01/10 08:23:44;;;;;;;14.47;4.00;;;;;;;5.68;69.98;100745.47;10543658;28;20248;-84
2023/01/10 08:28:46;;;;;;;13.47;4.27;;;;;;;5.13;71.28;100748.78;10525361;28;20190;-86
2023/01/10 08:33:50;;;;;;;17.60;4.30;;;;;;;5.56;70.92;100742.94;10540188;28;20207;-85
2023/01/10 08:38:54;;;;;;;17.13;4.70;;;;;;;5.23;71.11;100743.34;10541434;28;20270;-84
2023/01/10 08:43:56;;;;;;;16.07;4.07;;;;;;;5.29;70.91;100753.38;10525484;28;20479;-83
2023/01/10 08:48:58;;;;;;;16.10;4.40;;;;;;;5.32;71.44;100763.97;10540839;28;20224;-85
2023/01/10 08:54:00;;;;;;;29.37;16.23;;;;;;;4.87;73.58;100765.31;10522468;28;20240;-83
2023/01/10 08:59:03;;;;;;;20.67;7.33;;;;;;;5.00;72.17;100766.78;10542869;28;20213;-84
2023/01/10 09:04:05;;;;;;;22.90;10.67;;;;;;;5.18;72.25;100768.31;10540289;28;20191;-85
2023/01/10 09:09:07;;;;;;;32.97;12.33;;;;;;;5.09;72.32;100769.91;10534845;28;20194;-84
2023/01/10 09:14:09;;;;;;;42.53;21.00;;;;;;;5.26;72.09;100771.44;10531634;28;20206;-84
2023/01/10 09:19:11;;;;;;;24.33;14.03;;;;;;;5.51;71.31;100784.66;10522406;28;20225;-84
2023/01/10 09:24:14;;;;;;;23.43;4.63;;;;;;;5.57;70.47;100780.78;10519390;28;20244;-83
2023/01/10 09:29:16;;;;;;;67.63;42.20;;;;;;;5.37;71.25;100777.91;10516856;28;20187;-84
2023/01/10 09:34:18;;;;;;;17.97;6.33;;;;;;;5.48;70.53;100784.38;10532101;28;20244;-84
2023/01/10 09:39:20;;;;;;;20.20;5.83;;;;;;;5.32;71.96;100784.28;10515526;28;20192;-84
2023/01/10 09:44:51;;;;;;;17.63;3.83;;;;;;;5.68;69.75;100792.78;10500508;28;20180;-84
2023/01/10 09:50:14;;;;;;;13.67;4.37;;;;;;;5.37;71.20;100802.94;10524657;28;20201;-87
2023/01/10 09:55:22;;;;;;;16.47;3.97;;;;;;;5.85;69.87;100803.72;10539485;28;20279;-85
2023/01/10 10:00:57;;;;;;;12.27;3.53;;;;;;;5.95;69.54;100804.59;10487383;28;20194;-84
2023/01/10 10:05:59;;;;;;;17.97;4.67;;;;;;;5.83;69.13;100805.94;10527581;28;20195;-83
2023/01/10 10:11:25;;;;;;;16.47;4.60;;;;;;;5.68;68.32;100812.28;10527026;28;20190;-89
2023/01/10 10:17:02;;;;;;;19.70;4.97;;;;;;;5.31;70.99;100804.00;10542147;28;20217;-88
2023/01/10 10:22:40;;;;;;;19.90;5.13;;;;;;;6.24;68.26;100802.19;10526517;28;20194;-84
2023/01/10 10:28:16;;;;;;;16.97;4.73;;;;;;;5.74;68.67;100784.22;10504785;28;20195;-85
2023/01/10 10:33:33;;;;;;;20.83;4.43;;;;;;;5.86;68.28;100774.78;10541568;28;20244;-84
2023/01/10 10:38:38;;;;;;;17.27;4.03;;;;;;;5.78;70.09;100780.84;10541612;28;20226;-88
2023/01/10 10:43:41;;;;;;;21.93;4.40;;;;;;;6.33;67.65;100775.44;10531796;28;20236;-87
2023/01/10 10:48:49;;;;;;;20.10;3.70;;;;;;;6.45;65.87;100777.97;10541803;28;20183;-84
2023/01/10 10:53:53;;;;;;;15.53;4.10;;;;;;;6.52;65.92;100775.75;10541502;28;20183;-87
2023/01/10 10:58:58;;;;;;;14.23;3.60;;;;;;;6.70;64.82;100765.97;10522213;28;20214;-83
2023/01/10 11:04:05;;;;;;;12.93;3.20;;;;;;;6.27;65.98;100756.22;10539655;28;20194;-83
2023/01/10 11:09:07;;;;;;;12.37;2.77;;;;;;;6.88;64.73;100737.56;10519731;28;20528;-86
2023/01/10 11:14:11;;;;;;;16.70;3.90;;;;;;;6.16;66.94;100760.94;10540190;28;20236;-83
2023/01/10 11:19:17;;;;;;;12.03;3.13;;;;;;;6.09;67.17;100763.16;10528446;28;20206;-83
2023/01/10 11:24:31;;;;;;;17.37;4.17;;;;;;;6.14;67.68;100746.47;10535883;28;20198;-85
2023/01/10 11:29:41;;;;;;;11.70;3.23;;;;;;;6.87;64.86;100733.09;10542877;28;20595;-84
2023/01/10 11:34:57;;;;;;;14.43;3.83;;;;;;;6.51;65.82;100728.66;10546307;28;20283;-83
2023/01/10 11:40:09;;;;;;;18.40;3.40;;;;;;;6.88;64.51;100722.78;10546309;28;20705;-83
2023/01/10 11:45:17;;;;;;;22.23;4.40;;;;;;;7.34;63.67;100729.91;10545919;28;20259;-85
2023/01/10 11:50:27;;;;;;;13.43;3.80;;;;;;;6.79;64.67;100728.13;10545793;28;20652;-85
2023/01/10 11:55:31;;;;;;;14.60;3.00;;;;;;;6.33;66.20;100730.88;10530112;28;20259;-85
2023/01/10 12:00:40;;;;;;;13.60;3.47;;;;;;;6.84;64.72;100716.94;10541119;28;20260;-82
2023/01/10 12:05:55;;;;;;;13.30;3.00;;;;;;;6.86;63.81;100711.91;10529564;28;20849;-87
2023/01/10 12:11:04;;;;;;;16.53;2.93;;;;;;;6.97;64.42;100707.16;10535925;28;20228;-85
2023/01/10 12:16:20;;;;;;;13.50;3.03;;;;;;;6.93;64.30;100706.91;10547036;28;20207;-87
2023/01/10 12:21:36;;;;;;;11.37;3.00;;;;;;;6.80;64.65;100701.91;10546336;28;20255;-84
2023/01/10 12:26:38;;;;;;;18.23;2.90;;;;;;;6.39;65.33;100707.47;10546355;28;20205;-85
2023/01/10 12:31:40;;;;;;;13.33;2.97;;;;;;;6.59;64.16;100700.22;10540718;28;20195;-83
2023/01/10 12:36:52;;;;;;;15.23;2.70;;;;;;;6.72;64.34;100699.63;10519520;28;20218;-83
2023/01/10 12:47:49;;;;;;;11.70;2.47;;;;;;;6.82;63.30;100696.84;10537601;28;20801;-85
2023/01/10 12:53:18;;;;;;;14.07;2.37;;;;;;;6.81;63.71;100684.06;10561516;28;20278;-84
2023/01/10 12:58:25;;;;;;;9.97;2.40;;;;;;;6.77;63.07;100680.16;10538980;28;20543;-88
2023/01/10 13:03:29;;;;;;;10.37;2.10;;;;;;;6.85;62.36;100671.22;10529585;28;20248;-86
2023/01/10 13:08:36;;;;;;;11.13;2.50;;;;;;;6.99;61.57;100661.13;10536662;28;20610;-90
2023/01/10 13:13:43;;;;;;;9.27;1.90;;;;;;;7.18;61.72;100658.56;10521466;28;20244;-83
2023/01/10 13:19:01;;;;;;;14.03;2.00;;;;;;;6.59;63.07;100644.47;10500496;28;20265;-84
2023/01/10 13:24:19;;;;;;;12.63;2.53;;;;;;;6.34;62.98;100635.03;10541459;28;20256;-86
2023/01/10 13:29:28;;;;;;;10.40;2.43;;;;;;;6.71;61.60;100628.28;10529921;28;20236;-84
2023/01/10 13:34:34;;;;;;;10.10;2.20;;;;;;;6.81;61.12;100620.75;10520466;28;20230;-85
2023/01/10 13:39:39;;;;;;;13.43;2.10;;;;;;;6.79;60.95;100609.06;10495919;28;20223;-85
2023/01/10 13:44:59;;;;;;;10.80;1.60;;;;;;;6.92;60.29;100599.25;10524626;28;20194;-85
2023/01/10 13:50:22;;;;;;;14.30;2.37;;;;;;;7.10;59.28;100604.19;10537367;28;20210;-84
2023/01/10 13:55:27;;;;;;;12.17;2.10;;;;;;;7.16;58.83;100602.22;10537224;28;20533;-84
2023/01/10 14:05:53;;;;;;;8.40;2.33;;;;;;;6.90;58.77;100595.91;10540126;28;20194;-84
2023/01/10 14:11:09;;;;;;;8.27;1.70;;;;;;;7.46;58.50;100595.66;10539447;28;20228;-86
2023/01/10 14:16:35;;;;;;;16.13;2.20;;;;;;;6.78;58.94;100575.91;10541814;28;20198;-83
2023/01/10 14:21:42;;;;;;;6.27;1.70;;;;;;;6.75;58.66;100568.94;10516948;28;20202;-86
2023/01/10 14:26:46;;;;;;;10.50;2.33;;;;;;;6.68;58.49;100564.75;10515043;28;20194;-85
2023/01/10 14:31:51;;;;;;;8.73;1.53;;;;;;;6.60;59.11;100566.16;10545327;28;20213;-84
2023/01/10 14:36:59;;;;;;;9.90;2.20;;;;;;;6.53;58.34;100550.88;10526109;28;20245;-83
2023/01/10 14:42:06;;;;;;;12.10;1.80;;;;;;;6.55;58.75;100545.84;10522797;28;20672;-84
2023/01/10 14:47:25;;;;;;;9.60;0.93;;;;;;;6.52;58.79;100543.63;10537709;28;20252;-86
2023/01/10 14:52:28;;;;;;;10.27;1.80;;;;;;;6.98;58.12;100531.19;10523981;28;20191;-83
2023/01/10 14:57:30;;;;;;;8.37;1.63;;;;;;;6.21;59.83;100532.53;10530637;28;20206;-84
2023/01/10 15:02:33;;;;;;;6.33;1.07;;;;;;;6.31;59.86;100517.75;10547643;28;20198;-88
2023/01/10 15:07:39;;;;;;;13.23;2.50;;;;;;;6.65;58.53;100509.56;10543671;28;20283;-84
2023/01/10 15:12:43;;;;;;;6.37;1.10;;;;;;;6.63;59.53;100503.44;10538857;28;20194;-76
2023/01/10 15:17:46;;;;;;;10.97;1.93;;;;;;;6.29;59.41;100509.69;10539178;28;20218;-85
2023/01/10 15:23:00;;;;;;;10.23;1.47;;;;;;;6.36;59.15;100498.25;10525602;28;20215;-85
2023/01/10 15:28:04;;;;;;;13.00;1.83;;;;;;;6.04;59.95;100504.16;10528075;28;20233;-85
2023/01/10 15:33:25;;;;;;;7.80;1.47;;;;;;;6.13;59.47;100496.09;10535412;28;20195;-85
2023/01/10 15:38:33;;;;;;;10.93;1.60;;;;;;;6.32;59.05;100497.13;10534883;28;20249;-88
2023/01/10 15:43:36;;;;;;;7.47;1.37;;;;;;;6.01;60.19;100485.25;10527553;28;20244;-88
2023/01/10 15:48:39;;;;;;;10.27;2.03;;;;;;;5.96;60.50;100490.81;10527106;28;20221;-83
2023/01/10 15:53:50;;;;;;;11.03;2.67;;;;;;;5.95;59.84;100469.66;10512620;28;20198;-88
2023/01/10 15:58:52;;;;;;;7.13;1.47;;;;;;;5.91;60.05;100468.53;10542511;28;20272;-83
2023/01/10 16:04:03;;;;;;;6.33;1.90;;;;;;;6.01;59.95;100454.63;10517582;28;20198;-83
2023/01/10 16:09:07;;;;;;;9.53;1.90;;;;;;;5.83;60.27;100435.72;10505377;28;20228;-83
2023/01/10 16:14:25;;;;;;;8.40;2.57;;;;;;;5.70;60.75;100426.00;10525709;28;20198;-90
2023/01/10 16:20:29;;;;;;;8.93;1.57;;;;;;;6.12;59.60;100422.00;10551318;28;20548;-88
2023/01/10 16:25:50;;;;;;;6.90;1.60;;;;;;;6.04;60.23;100417.84;10538776;28;20263;-87
2023/01/10 16:30:53;;;;;;;6.17;2.17;;;;;;;6.01;60.30;100410.06;10526786;28;20663;-89
2023/01/10 16:35:58;;;;;;;7.17;1.70;;;;;;;5.66;61.21;100409.03;10547638;28;20214;-88
2023/01/10 16:46:23;;;;;;;9.97;1.67;;;;;;;5.81;61.75;100415.69;10521808;28;20218;-90
2023/01/10 16:51:27;;;;;;;6.87;1.63;;;;;;;5.61;62.74;100411.00;10538073;28;20278;-88
2023/01/10 16:56:29;;;;;;;11.23;2.10;;;;;;;5.47;63.95;100396.00;10545129;28;20206;-88
2023/01/10 17:01:45;;;;;;;11.93;2.20;;;;;;;5.76;63.97;100390.66;10506257;28;20199;-88
2023/01/10 17:06:48;;;;;;;9.30;2.27;;;;;;;5.79;65.23;100367.81;10532185;28;20551;-87
2023/01/10 17:11:56;;;;;;;7.23;1.20;;;;;;;5.41;68.50;100367.34;10552398;28;20243;-85
2023/01/10 17:16:58;;;;;;;9.83;1.70;;;;;;;5.31;70.71;100370.13;10517681;28;20610;-87
2023/01/10 17:22:00;;;;;;;10.30;2.50;;;;;;;5.37;72.25;100369.03;10514960;28;20195;-87
2023/01/10 17:27:03;;;;;;;11.57;1.77;;;;;;;5.37;72.86;100344.84;10529250;28;20202;-86
2023/01/10 17:32:07;;;;;;;10.30;2.17;;;;;;;5.22;73.95;100321.75;10506078;28;20209;-84
2023/01/10 17:37:09;;;;;;;9.90;1.97;;;;;;;5.31;74.39;100311.72;10531696;28;20222;-85
2023/01/10 17:42:11;;;;;;;7.27;1.60;;;;;;;5.02;76.00;100311.44;10533121;28;20198;-88
2023/01/10 17:47:13;;;;;;;7.63;1.80;;;;;;;5.13;76.72;100290.84;10519758;28;20255;-87
2023/01/10 17:52:15;;;;;;;8.77;1.20;;;;;;;4.92;77.15;100270.59;10544730;28;20248;-85
2023/01/10 17:57:18;;;;;;;4.20;0.83;;;;;;;4.64;78.86;100257.28;10518295;28;20271;-87
2023/01/10 18:02:20;;;;;;;7.67;1.77;;;;;;;4.84;78.40;100251.72;10517607;28;20611;-87
2023/01/10 18:07:22;;;;;;;5.53;1.30;;;;;;;4.97;77.19;100245.59;10518749;28;20199;-87
2023/01/10 18:12:25;;;;;;;4.83;0.90;;;;;;;5.24;75.50;100236.13;10515950;28;20224;-85
2023/01/10 18:17:27;;;;;;;3.87;0.80;;;;;;;5.58;75.17;100223.19;10515107;28;20222;-87
2023/01/10 18:27:51;;;;;;;5.40;0.90;;;;;;;5.50;75.62;100207.09;10515866;28;20216;-87
2023/01/10 18:32:53;;;;;;;5.20;0.90;;;;;;;4.96;78.35;100191.13;10514869;28;20284;-85
2023/01/10 18:37:56;;;;;;;3.80;0.87;;;;;;;4.98;79.34;100191.69;10528967;28;20262;-86
2023/01/10 18:42:58;;;;;;;2.83;1.10;;;;;;;5.00;78.70;100191.38;10526089;28;20256;-86
2023/01/10 18:48:01;;;;;;;6.07;1.13;;;;;;;4.89;78.81;100179.44;10513202;28;20195;-86
2023/01/10 18:53:03;;;;;;;2.47;0.67;;;;;;;5.15;77.83;100168.25;10507947;28;20272;-87
2023/01/10 18:58:08;;;;;;;3.97;1.00;;;;;;;4.94;78.47;100151.66;10521011;28;20515;-86
2023/01/10 19:03:10;;;;;;;2.50;0.60;;;;;;;4.90;78.82;100158.88;10537520;28;20248;-86
2023/01/10 19:08:12;;;;;;;3.80;1.00;;;;;;;5.00;77.73;100141.34;10514011;28;20364;-87
2023/01/10 19:13:16;;;;;;;4.60;1.00;;;;;;;5.06;77.90;100159.66;10530400;28;20653;-84
2023/01/10 19:18:18;;;;;;;1.50;0.57;;;;;;;4.95;78.12;100142.19;10524871;28;20249;-84
2023/01/10 19:23:20;;;;;;;2.20;0.70;;;;;;;4.98;78.80;100141.66;10483784;28;20600;-85
2023/01/10 19:28:22;;;;;;;4.90;0.73;;;;;;;5.16;77.66;100131.00;10502658;28;20603;-88
2023/01/10 19:33:24;;;;;;;2.33;0.50;;;;;;;5.16;77.50;100125.44;10499877;28;20238;-84
2023/01/10 19:38:26;;;;;;;3.80;0.70;;;;;;;5.02;78.60;100114.09;10514622;28;20223;-87
2023/01/10 19:43:29;;;;;;;2.47;0.57;;;;;;;5.25;77.99;100107.94;10518049;28;20596;-86
2023/01/10 19:48:36;;;;;;;1.87;0.30;;;;;;;5.10;77.62;100101.56;10517608;28;20264;-83
2023/01/10 19:53:44;;;;;;;3.23;0.47;;;;;;;5.17;76.92;100110.41;10522129;28;20223;-85
2023/01/10 19:58:47;;;;;;;2.40;0.30;;;;;;;5.13;77.55;100078.72;10515502;28;20238;-84
2023/01/10 20:03:49;;;;;;;1.50;0.63;;;;;;;5.20;78.42;100104.31;10511548;28;20224;-84
2023/01/10 20:08:55;;;;;;;1.40;0.57;;;;;;;5.13;77.87;100096.25;10506115;28;20267;-82
2023/01/10 20:13:57;;;;;;;2.73;0.40;;;;;;;5.42;77.06;100101.97;10498079;28;20219;-84
2023/01/10 20:19:04;;;;;;;2.93;0.70;;;;;;;5.84;75.82;100098.66;10495395;28;20226;-83
2023/01/10 20:24:11;;;;;;;2.80;0.50;;;;;;;5.54;76.46;100082.97;10487494;28;20265;-85
2023/01/10 20:29:14;;;;;;;3.00;0.80;;;;;;;5.45;76.76;100079.16;10526094;28;20190;-86
2023/01/10 20:34:18;;;;;;;3.03;0.70;;;;;;;5.67;75.95;100082.34;10514775;28;20996;-84
2023/01/10 20:39:21;;;;;;;2.30;0.73;;;;;;;5.71;76.87;100072.31;10513692;28;20243;-87
2023/01/10 20:44:25;;;;;;;0.97;0.30;;;;;;;5.71;77.08;100066.72;10536985;28;20643;-84
2023/01/10 20:49:27;;;;;;;2.70;0.37;;;;;;;5.73;76.42;100058.94;10500579;28;20194;-85
2023/01/10 20:54:29;;;;;;;0.97;0.40;;;;;;;5.80;77.02;100060.53;10503649;28;20202;-85
2023/01/10 20:59:32;;;;;;;4.80;0.80;;;;;;;5.83;76.98;100046.03;10510095;28;20607;-84
2023/01/10 21:04:34;;;;;;;1.97;0.50;;;;;;;5.92;77.22;100049.84;10514182;28;20335;-88
2023/01/10 21:09:37;;;;;;;1.57;0.50;;;;;;;5.94;75.72;100058.75;10532402;28;20243;-87
2023/01/10 21:14:39;;;;;;;0.40;0.23;;;;;;;6.03;76.09;100035.59;10538453;28;20468;-84
2023/01/10 21:19:41;;;;;;;0.93;0.43;;;;;;;5.68;76.08;100030.31;10529353;28;20272;-83
2023/01/10 21:24:43;;;;;;;1.23;0.20;;;;;;;5.76;77.01;100028.88;10535123;28;20255;-87
2023/01/10 21:29:45;;;;;;;0.93;0.23;;;;;;;5.82;77.39;100002.63;10544296;28;20193;-86
2023/01/10 21:34:48;;;;;;;3.37;0.40;;;;;;;5.61;77.47;100016.72;10540786;28;20271;-85
2023/01/10 21:39:50;;;;;;;1.93;0.30;;;;;;;5.83;77.79;100004.31;10508462;28;20218;-84
2023/01/10 21:44:52;;;;;;;0.20;0.20;;;;;;;6.17;75.42;99977.22;10501280;28;20199;-86
2023/01/10 21:49:55;;;;;;;1.43;0.30;;;;;;;5.95;75.62;99994.44;10518946;28;20537;-86
2023/01/10 21:54:57;;;;;;;1.23;0.40;;;;;;;5.99;75.84;100005.81;10513247;28;20202;-86
2023/01/10 21:59:59;;;;;;;1.37;0.30;;;;;;;6.00;76.12;99999.13;10515027;28;20631;-85
2023/01/10 22:05:02;;;;;;;1.07;0.30;;;;;;;6.03;76.05;99990.22;10530258;28;20261;-84
2023/01/10 22:10:05;;;;;;;0.27;0.20;;;;;;;6.12;76.18;99988.44;10525228;28;20267;-86
2023/01/10 22:15:08;;;;;;;1.67;0.30;;;;;;;5.98;75.55;99995.81;10527008;28;20198;-86
2023/01/10 22:20:11;;;;;;;0.70;0.27;;;;;;;6.02;76.61;99971.84;10529865;28;20218;-85
2023/01/10 22:25:13;;;;;;;0.90;0.20;;;;;;;6.06;76.46;99961.75;10493307;28;20268;-84
2023/01/10 22:30:16;;;;;;;1.40;0.50;;;;;;;6.27;75.68;99954.84;10533857;28;20191;-86
2023/01/10 22:35:18;;;;;;;0.73;0.40;;;;;;;6.10;77.15;99946.97;10532249;28;20230;-85
2023/01/10 22:40:21;;;;;;;1.13;0.33;;;;;;;6.22;77.61;99943.75;10533779;28;20279;-87
2023/01/10 22:45:24;;;;;;;0.90;0.20;;;;;;;6.28;77.12;99931.44;10511776;28;20256;-87
2023/01/10 22:50:26;;;;;;;0.30;0.20;;;;;;;6.17;77.62;99929.06;10518006;28;20607;-86
2023/01/10 22:55:28;;;;;;;0.30;0.10;;;;;;;6.09;77.33;99927.75;10497776;28;20199;-87
2023/01/10 23:00:31;;;;;;;0.13;0.13;;;;;;;6.40;76.40;99928.25;10475618;28;20226;-86
2023/01/10 23:05:33;;;;;;;1.10;0.10;;;;;;;6.66;75.27;99912.00;10523796;28;20882;-85
2023/01/10 23:10:37;;;;;;;0.70;0.13;;;;;;;6.36;77.00;99894.56;10534674;28;20195;-87
2023/01/10 23:15:39;;;;;;;0.67;0.20;;;;;;;6.50;76.57;99914.16;10537223;28;20260;-86
2023/01/10 23:20:42;;;;;;;0.30;0.20;;;;;;;6.16;78.04;99927.41;10514702;28;20696;-86
2023/01/10 23:25:44;;;;;;;1.23;0.10;;;;;;;6.09;78.38;99914.66;10530745;28;20256;-85
2023/01/10 23:30:47;;;;;;;0.20;0.20;;;;;;;6.31;79.28;99902.97;10511950;28;20487;-86
2023/01/10 23:35:50;;;;;;;0.20;0.10;;;;;;;6.15;78.95;99897.91;10532235;28;20230;-87
2023/01/10 23:40:52;;;;;;;0.50;0.20;;;;;;;6.51;78.20;99889.94;10508856;28;20293;-85
2023/01/10 23:45:54;;;;;;;0.73;0.20;;;;;;;6.31;79.18;99877.91;10540754;28;20252;-86
2023/01/10 23:50:57;;;;;;;0.50;0.20;;;;;;;6.35;78.98;99865.06;10546873;28;20195;-84
2023/01/10 23:56:08;;;;;;;0.40;0.10;;;;;;;6.74;76.79;99869.53;10506781;28;20203;-85
